createdAt,value
2022-07-25T00:01:58.074Z,68.79
2022-07-25T00:04:28.103Z,68.62
2022-07-25T00:06:55.954Z,69.30
2022-07-25T00:09:23.611Z,69.26
2022-07-25T00:11:51.233Z,69.46
2022-07-25T00:14:18.907Z,70.26
2022-07-25T00:16:46.653Z,70.89
2022-07-25T00:19:14.432Z,70.52
2022-07-25T00:21:42.013Z,70.93
2022-07-25T00:24:10.514Z,71.13
2022-07-25T00:26:40.445Z,71.74
2022-07-25T00:29:08.262Z,72.32
2022-07-25T00:31:36.140Z,72.32
2022-07-25T00:34:04.478Z,72.84
2022-07-25T00:36:32.273Z,73.38
2022-07-25T00:39:00.262Z,74.34
2022-07-25T00:41:27.909Z,73.65
2022-07-25T00:43:55.631Z,73.87
2022-07-25T00:46:23.902Z,74.56
2022-07-25T00:48:51.820Z,74.73
2022-07-25T00:51:19.631Z,74.99
2022-07-25T00:53:47.750Z,74.95
2022-07-25T00:56:17.075Z,75.49
2022-07-25T00:58:45.753Z,76.18
2022-07-25T01:01:13.654Z,75.95
2022-07-25T01:03:41.771Z,76.03
2022-07-25T01:06:09.411Z,76.53
2022-07-25T01:08:37.467Z,76.83
2022-07-25T01:11:05.473Z,76.90
2022-07-25T01:13:34.842Z,77.03
2022-07-25T01:16:02.593Z,76.70
2022-07-25T01:18:30.592Z,76.63
2022-07-25T01:20:58.148Z,76.43
2022-07-25T01:23:25.850Z,75.42
2022-07-25T01:25:53.469Z,75.41
2022-07-25T01:28:21.128Z,75.12
2022-07-25T01:31:21.547Z,74.61
2022-07-25T01:33:49.249Z,75.14
2022-07-25T01:36:16.931Z,75.86
2022-07-25T01:38:44.610Z,75.69
2022-07-25T01:41:12.354Z,75.37
2022-07-25T01:43:50.114Z,75.28
2022-07-25T01:46:18.096Z,75.43
2022-07-25T01:48:45.852Z,75.54
2022-07-25T01:51:13.707Z,75.61
2022-07-25T01:53:41.333Z,76.18
2022-07-25T01:56:12.251Z,75.45
2022-07-25T01:58:40.170Z,75.64
2022-07-25T02:01:07.926Z,75.66
2022-07-25T02:03:35.670Z,76.07
2022-07-25T02:06:07.170Z,76.11
2022-07-25T02:08:35.157Z,76.42
2022-07-25T02:11:02.873Z,77.28
2022-07-25T02:13:30.761Z,77.27
2022-07-25T02:15:58.290Z,77.14
2022-07-25T02:18:25.950Z,77.94
2022-07-25T02:20:53.527Z,78.25
2022-07-25T02:23:21.150Z,78.30
2022-07-25T02:25:48.809Z,78.40
2022-07-25T02:28:16.557Z,78.84
2022-07-25T02:30:44.293Z,79.04
2022-07-25T02:33:12.006Z,79.67
2022-07-25T02:35:39.731Z,79.91
2022-07-25T02:38:07.609Z,80.05
2022-07-25T02:40:35.210Z,79.92
2022-07-25T02:43:02.873Z,79.58
2022-07-25T02:45:30.429Z,80.17
2022-07-25T02:47:58.027Z,80.42
2022-07-25T02:50:25.630Z,80.28
2022-07-25T02:52:53.208Z,80.50
2022-07-25T02:55:20.808Z,79.82
2022-07-25T02:57:48.550Z,79.01
2022-07-25T03:00:16.991Z,79.11
2022-07-25T03:02:44.929Z,79.42
2022-07-25T03:05:15.026Z,79.94
2022-07-25T03:07:44.390Z,79.40
2022-07-25T03:10:14.252Z,79.04
2022-07-25T03:12:43.170Z,78.84
2022-07-25T03:15:12.726Z,79.16
2022-07-25T03:17:40.917Z,80.14
2022-07-25T03:20:09.460Z,80.30
2022-07-25T03:22:37.469Z,80.49
2022-07-25T03:25:05.745Z,80.24
2022-07-25T03:27:43.269Z,79.90
2022-07-25T03:30:12.429Z,79.33
2022-07-25T03:32:41.445Z,78.07
2022-07-25T03:35:09.715Z,76.05
2022-07-25T03:37:37.487Z,74.51
2022-07-25T03:40:05.968Z,73.53
2022-07-25T03:42:35.354Z,72.91
2022-07-25T03:45:04.069Z,73.23
2022-07-25T03:47:31.664Z,71.56
2022-07-25T03:49:59.266Z,67.71
2022-07-25T03:52:26.850Z,65.43
2022-07-25T03:54:54.368Z,64.31
2022-07-25T03:57:21.989Z,62.40
2022-07-25T03:59:49.494Z,60.05
2022-07-25T04:02:17.142Z,59.80
2022-07-25T04:04:44.813Z,59.16
2022-07-25T04:07:12.445Z,57.58
2022-07-25T04:09:39.928Z,56.52
2022-07-25T04:12:07.649Z,57.58
2022-07-25T04:14:35.288Z,58.64
2022-07-25T04:17:02.919Z,58.08
2022-07-25T04:19:30.605Z,54.64
2022-07-25T04:21:58.209Z,52.57
2022-07-25T04:24:25.871Z,52.35
2022-07-25T04:26:53.571Z,50.53
2022-07-25T04:29:21.208Z,49.57
2022-07-25T04:31:49.032Z,48.91
2022-07-25T04:34:16.945Z,47.82
2022-07-25T04:36:44.667Z,48.18
2022-07-25T04:39:12.349Z,48.56
2022-07-25T04:41:40.171Z,49.71
2022-07-25T04:44:09.105Z,48.44
2022-07-25T04:46:37.148Z,49.47
2022-07-25T04:49:05.068Z,48.35
2022-07-25T04:51:32.726Z,45.83
2022-07-25T04:54:00.288Z,44.90
2022-07-25T04:56:27.993Z,46.24
2022-07-25T04:58:55.715Z,44.29
2022-07-25T05:01:23.424Z,43.62
2022-07-25T05:03:51.067Z,45.23
2022-07-25T05:06:19.719Z,44.33
2022-07-25T05:08:47.495Z,43.70
2022-07-25T05:11:15.207Z,42.20
2022-07-25T05:13:42.832Z,41.18
2022-07-25T05:16:10.497Z,40.80
2022-07-25T05:18:38.115Z,39.92
2022-07-25T05:21:05.751Z,39.89
2022-07-25T05:23:33.310Z,41.13
2022-07-25T05:26:02.648Z,41.98
2022-07-25T05:28:30.248Z,41.64
2022-07-25T05:30:57.908Z,40.65
2022-07-25T05:33:26.746Z,40.65
2022-07-25T05:35:54.334Z,40.43
2022-07-25T05:38:22.028Z,39.94
2022-07-25T05:40:52.393Z,39.37
2022-07-25T05:43:20.068Z,40.20
2022-07-25T05:45:47.642Z,39.29
2022-07-25T05:48:16.208Z,39.39
2022-07-25T05:50:44.014Z,38.62
2022-07-25T05:53:11.643Z,38.80
2022-07-25T05:55:40.702Z,38.86
2022-07-25T05:58:09.689Z,39.99
2022-07-25T06:00:39.350Z,39.94
2022-07-25T06:03:07.156Z,39.87
2022-07-25T06:05:34.763Z,39.39
2022-07-25T06:08:02.473Z,39.38
2022-07-25T06:10:30.043Z,39.01
2022-07-25T06:12:57.808Z,38.83
2022-07-25T06:15:26.670Z,39.00
2022-07-25T06:17:55.160Z,38.10
2022-07-25T06:20:23.482Z,38.37
2022-07-25T06:22:51.455Z,37.73
2022-07-25T06:25:19.450Z,37.53
2022-07-25T06:27:47.368Z,37.84
2022-07-25T06:30:20.190Z,38.09
2022-07-25T06:32:51.246Z,38.69
2022-07-25T06:35:19.109Z,38.33
2022-07-25T06:37:47.098Z,38.29
2022-07-25T06:40:15.386Z,38.41
2022-07-25T06:42:45.025Z,38.00
2022-07-25T06:45:14.264Z,38.50
2022-07-25T06:47:43.146Z,38.24
2022-07-25T06:50:14.388Z,37.55
2022-07-25T06:52:42.928Z,36.83
2022-07-25T06:55:11.906Z,37.01
2022-07-25T06:57:40.027Z,37.07
2022-07-25T07:00:10.804Z,36.80
2022-07-25T07:02:48.547Z,35.88
2022-07-25T07:05:16.106Z,36.22
2022-07-25T07:07:47.616Z,35.78
2022-07-25T07:10:16.886Z,36.55
2022-07-25T07:12:45.185Z,36.62
2022-07-25T07:15:13.773Z,37.02
2022-07-25T07:17:42.047Z,36.47
2022-07-25T07:20:10.436Z,36.39
2022-07-25T07:22:45.662Z,37.08
2022-07-25T07:25:15.609Z,37.36
2022-07-25T07:27:44.626Z,37.87
2022-07-25T07:30:15.003Z,37.47
2022-07-25T07:32:43.845Z,37.26
2022-07-25T07:35:12.466Z,37.39
2022-07-25T07:37:43.449Z,36.77
2022-07-25T07:40:17.866Z,36.25
2022-07-25T07:42:48.241Z,36.78
2022-07-25T07:45:23.385Z,36.34
2022-07-25T07:47:53.266Z,36.17
2022-07-25T07:50:27.103Z,36.82
2022-07-25T07:52:56.698Z,37.21
2022-07-25T07:55:42.784Z,36.67
2022-07-25T07:58:16.225Z,36.20
2022-07-25T08:00:45.126Z,36.08
2022-07-25T08:03:12.999Z,35.63
2022-07-25T08:05:43.546Z,35.60
2022-07-25T08:08:13.299Z,36.28
2022-07-25T08:10:44.560Z,36.10
2022-07-25T08:13:24.241Z,35.63
2022-07-25T08:15:54.414Z,36.14
2022-07-25T08:18:22.045Z,36.04
2022-07-25T08:20:50.702Z,36.20
2022-07-25T08:23:19.884Z,36.36
2022-07-25T08:25:48.726Z,36.89
2022-07-25T08:28:16.393Z,36.41
2022-07-25T08:30:44.207Z,36.09
2022-07-25T08:33:14.761Z,36.08
2022-07-25T08:35:52.079Z,35.92
2022-07-25T08:38:24.190Z,36.13
2022-07-25T08:40:55.983Z,35.60
2022-07-25T08:43:23.926Z,35.61
2022-07-25T08:45:55.983Z,35.96
2022-07-25T08:48:26.130Z,34.75
2022-07-25T08:50:57.491Z,34.37
2022-07-25T08:53:34.602Z,34.31
2022-07-25T08:56:13.284Z,34.78
2022-07-25T08:58:44.230Z,34.96
2022-07-25T09:01:14.392Z,35.39
2022-07-25T09:03:43.461Z,35.00
2022-07-25T09:06:19.465Z,34.96
2022-07-25T09:08:58.103Z,34.28
2022-07-25T09:11:37.269Z,34.68
2022-07-25T09:14:13.101Z,34.76
2022-07-25T09:16:49.891Z,33.73
2022-07-25T09:19:20.943Z,34.17
2022-07-25T09:22:20.865Z,33.76
2022-07-25T09:24:48.786Z,33.85
2022-07-25T09:27:18.404Z,33.90
2022-07-25T09:29:46.248Z,34.09
2022-07-25T09:32:19.545Z,33.29
2022-07-25T09:34:48.241Z,33.06
2022-07-25T09:37:19.010Z,33.74
2022-07-25T09:39:49.804Z,33.48
2022-07-25T09:42:26.244Z,33.23
2022-07-25T09:45:12.972Z,33.52
2022-07-25T09:48:05.003Z,33.11
2022-07-25T09:50:33.581Z,32.29
2022-07-25T09:53:02.847Z,32.39
2022-07-25T09:55:31.554Z,32.95
2022-07-25T09:57:59.341Z,32.34
2022-07-25T10:00:29.344Z,32.32
2022-07-25T10:03:18.565Z,31.92
2022-07-25T10:06:03.702Z,31.27
2022-07-25T10:08:37.284Z,31.82
2022-07-25T10:11:06.865Z,30.36
2022-07-25T10:13:36.764Z,30.83
2022-07-25T10:16:27.983Z,31.28
2022-07-25T10:18:58.523Z,31.14
2022-07-25T10:21:28.505Z,31.83
2022-07-25T10:24:10.583Z,31.37
2022-07-25T10:26:51.094Z,31.22
2022-07-25T10:29:18.866Z,30.70
2022-07-25T10:31:51.221Z,30.86
2022-07-25T10:34:33.832Z,31.24
2022-07-25T10:37:18.403Z,31.33
2022-07-25T10:39:50.024Z,32.66
2022-07-25T10:42:21.746Z,31.96
2022-07-25T10:44:57.802Z,32.01
2022-07-25T10:47:27.665Z,32.06
2022-07-25T10:50:21.598Z,31.74
2022-07-25T10:53:00.926Z,31.03
2022-07-25T10:55:29.366Z,31.45
2022-07-25T10:58:21.861Z,32.60
2022-07-25T11:00:51.474Z,32.13
2022-07-25T11:03:20.980Z,31.95
2022-07-25T11:05:49.219Z,32.36
2022-07-25T11:08:24.416Z,33.06
2022-07-25T11:10:53.744Z,32.41
2022-07-25T11:13:21.903Z,32.28
2022-07-25T11:15:50.061Z,32.64
2022-07-25T11:18:18.710Z,32.22
2022-07-25T11:20:46.463Z,32.53
2022-07-25T11:23:22.326Z,32.21
2022-07-25T11:25:51.670Z,31.33
2022-07-25T11:28:19.246Z,31.58
2022-07-25T11:30:46.824Z,31.80
2022-07-25T11:33:17.778Z,31.66
2022-07-25T11:35:45.683Z,31.48
2022-07-25T11:38:14.804Z,32.29
2022-07-25T11:40:45.691Z,32.01
2022-07-25T11:43:23.975Z,32.53
2022-07-25T11:46:18.813Z,32.31
2022-07-25T11:48:47.987Z,32.51
2022-07-25T11:51:19.098Z,32.55
2022-07-25T11:53:49.893Z,32.54
2022-07-25T11:56:41.881Z,31.81
2022-07-25T11:59:11.151Z,31.63
2022-07-25T12:01:41.244Z,32.26
2022-07-25T12:04:15.682Z,32.67
2022-07-25T12:06:48.777Z,32.28
2022-07-25T12:09:20.620Z,32.25
2022-07-25T12:11:49.707Z,31.50
2022-07-25T12:14:17.427Z,32.26
2022-07-25T12:16:45.166Z,33.07
2022-07-25T12:19:21.339Z,32.13
2022-07-25T12:21:49.025Z,31.70
2022-07-25T12:24:16.579Z,29.78
2022-07-25T12:26:44.399Z,31.52
2022-07-25T12:29:11.924Z,31.95
2022-07-25T12:31:39.723Z,31.29
2022-07-25T12:34:07.307Z,31.90
2022-07-25T12:36:41.280Z,32.33
2022-07-25T12:39:09.265Z,30.35
2022-07-25T12:41:37.126Z,30.59
2022-07-25T12:44:05.062Z,31.69
2022-07-25T12:46:32.918Z,31.84
2022-07-25T12:49:00.715Z,31.67
2022-07-25T12:51:28.359Z,29.97
2022-07-25T12:53:56.020Z,30.60
2022-07-25T12:56:23.602Z,31.30
2022-07-25T12:58:51.299Z,30.43
2022-07-25T13:01:19.236Z,30.28
2022-07-25T13:03:47.542Z,31.07
2022-07-25T13:06:15.302Z,32.24
2022-07-25T13:08:42.984Z,31.99
2022-07-25T13:11:10.529Z,31.78
2022-07-25T13:13:38.282Z,32.69
2022-07-25T13:16:06.131Z,32.72
2022-07-25T13:18:34.103Z,32.42
2022-07-25T13:21:03.704Z,32.00
2022-07-25T13:23:31.803Z,31.62
2022-07-25T13:26:00.843Z,31.37
2022-07-25T13:28:29.041Z,31.52
2022-07-25T13:30:57.203Z,31.39
2022-07-25T13:33:24.884Z,31.40
2022-07-25T13:35:52.481Z,32.14
2022-07-25T13:38:20.758Z,31.47
2022-07-25T13:40:48.503Z,31.77
2022-07-25T13:43:16.204Z,31.99
2022-07-25T13:45:43.961Z,32.14
2022-07-25T13:48:28.915Z,32.30
2022-07-25T13:50:57.952Z,32.19
2022-07-25T13:53:29.927Z,32.01
2022-07-25T13:55:59.442Z,31.85
2022-07-25T13:58:28.040Z,31.59
2022-07-25T14:00:56.139Z,30.43
2022-07-25T14:03:24.103Z,30.70
2022-07-25T14:05:52.001Z,30.36
2022-07-25T14:08:19.801Z,30.57
2022-07-25T14:10:47.901Z,30.21
2022-07-25T14:13:21.480Z,30.46
2022-07-25T14:15:49.070Z,30.27
2022-07-25T14:18:16.477Z,30.07
2022-07-25T14:20:44.165Z,30.25
2022-07-25T14:23:11.700Z,29.81
2022-07-25T14:25:39.330Z,30.20
2022-07-25T14:28:06.880Z,30.46
2022-07-25T14:30:34.741Z,30.75
2022-07-25T14:33:02.229Z,30.61
2022-07-25T14:35:32.551Z,30.20
2022-07-25T14:38:00.918Z,30.49
2022-07-25T14:40:28.475Z,30.32
2022-07-25T14:42:56.028Z,30.56
2022-07-25T14:45:23.557Z,30.80
2022-07-25T14:47:59.533Z,31.00
2022-07-25T14:50:31.567Z,30.58
2022-07-25T14:52:59.133Z,30.69
2022-07-25T14:55:27.090Z,30.61
2022-07-25T14:57:54.718Z,30.63
2022-07-25T15:00:27.586Z,31.22
2022-07-25T15:02:57.460Z,31.05
2022-07-25T15:05:25.042Z,31.69
2022-07-25T15:07:52.607Z,31.64
2022-07-25T15:10:20.151Z,31.55
2022-07-25T15:12:51.469Z,31.87
2022-07-25T15:15:25.574Z,31.62
2022-07-25T15:17:53.727Z,31.20
2022-07-25T15:20:21.507Z,30.83
2022-07-25T15:22:49.027Z,31.25
2022-07-25T15:25:50.992Z,31.66
2022-07-25T15:28:19.596Z,32.04
2022-07-25T15:30:52.037Z,31.91
2022-07-25T15:33:19.848Z,31.95
2022-07-25T15:35:48.288Z,31.50
2022-07-25T15:38:16.422Z,31.73
2022-07-25T15:40:45.528Z,31.74
2022-07-25T15:43:13.350Z,31.64
2022-07-25T15:45:44.156Z,31.92
2022-07-25T15:48:13.862Z,31.65
2022-07-25T15:50:43.626Z,32.17
2022-07-25T15:53:12.297Z,31.79
2022-07-25T15:55:41.219Z,31.51
2022-07-25T15:58:10.376Z,31.76
2022-07-25T16:00:38.681Z,31.86
2022-07-25T16:03:07.196Z,32.06
2022-07-25T16:05:35.290Z,31.91
2022-07-25T16:08:03.566Z,31.61
2022-07-25T16:10:32.777Z,32.04
2022-07-25T16:13:01.383Z,32.19
2022-07-25T16:15:29.136Z,32.62
2022-07-25T16:18:02.136Z,32.66
2022-07-25T16:20:34.021Z,33.33
2022-07-25T16:23:01.971Z,33.74
2022-07-25T16:25:30.307Z,33.54
2022-07-25T16:27:59.069Z,33.77
2022-07-25T16:30:27.927Z,33.64
2022-07-25T16:32:55.734Z,33.76
2022-07-25T16:35:23.677Z,33.85
2022-07-25T16:37:51.754Z,33.92
2022-07-25T16:40:19.294Z,33.43
2022-07-25T16:42:49.827Z,33.36
2022-07-25T16:45:17.359Z,33.36
2022-07-25T16:47:44.926Z,33.24
2022-07-25T16:50:12.411Z,33.11
2022-07-25T16:52:40.058Z,33.18
2022-07-25T16:55:07.836Z,33.23
2022-07-25T16:57:38.749Z,33.23
2022-07-25T17:00:08.937Z,33.14
2022-07-25T17:02:36.646Z,33.03
2022-07-25T17:05:04.675Z,33.14
2022-07-25T17:07:32.667Z,33.08
2022-07-25T17:10:00.205Z,33.40
2022-07-25T17:12:27.812Z,34.13
2022-07-25T17:14:55.297Z,34.26
2022-07-25T17:17:22.836Z,34.14
2022-07-25T17:19:50.252Z,34.91
2022-07-25T17:22:17.802Z,34.52
2022-07-25T17:24:45.265Z,34.77
2022-07-25T17:27:13.099Z,34.97
2022-07-25T17:29:40.625Z,35.17
2022-07-25T17:32:08.332Z,35.46
2022-07-25T17:34:35.866Z,35.61
2022-07-25T17:37:03.587Z,35.70
2022-07-25T17:39:31.455Z,35.76
2022-07-25T17:41:59.015Z,35.61
2022-07-25T17:44:27.074Z,35.72
2022-07-25T17:46:54.890Z,35.74
2022-07-25T17:49:22.524Z,35.50
2022-07-25T17:51:50.468Z,36.13
2022-07-25T17:54:18.034Z,36.27
2022-07-25T17:56:45.755Z,36.31
2022-07-25T17:59:13.885Z,36.34
2022-07-25T18:01:41.650Z,36.46
2022-07-25T18:04:09.656Z,36.44
2022-07-25T18:06:37.624Z,36.74
2022-07-25T18:09:05.221Z,36.75
2022-07-25T18:11:32.895Z,37.04
2022-07-25T18:14:00.543Z,37.18
2022-07-25T18:16:28.202Z,37.28
2022-07-25T18:18:55.906Z,37.60
2022-07-25T18:21:24.633Z,37.81
2022-07-25T18:23:52.395Z,37.85
2022-07-25T18:26:21.973Z,38.13
2022-07-25T18:28:49.824Z,37.91
2022-07-25T18:31:17.626Z,38.25
2022-07-25T18:33:45.295Z,38.19
2022-07-25T18:36:13.142Z,39.25
2022-07-25T18:38:40.854Z,39.71
2022-07-25T18:43:58.821Z,42.36
2022-07-25T18:46:30.363Z,45.45
2022-07-25T18:49:00.805Z,48.71
2022-07-25T18:51:28.482Z,51.10
2022-07-25T18:53:56.132Z,52.63
2022-07-25T18:56:23.878Z,53.97
2022-07-25T18:58:51.673Z,54.78
2022-07-25T19:01:21.182Z,55.95
2022-07-25T19:03:49.252Z,56.66
2022-07-25T19:06:17.590Z,57.73
2022-07-25T19:08:46.342Z,58.72
2022-07-25T19:11:15.548Z,59.72
2022-07-25T19:13:51.171Z,60.82
2022-07-25T19:16:19.556Z,61.75
2022-07-25T19:18:47.543Z,62.19
2022-07-25T19:21:15.694Z,63.38
2022-07-25T19:23:49.810Z,64.03
2022-07-25T19:26:19.919Z,65.00
2022-07-25T19:28:47.880Z,65.18
2022-07-25T19:31:15.749Z,66.14
2022-07-25T19:33:45.698Z,66.35
2022-07-25T19:36:14.184Z,66.55
2022-07-25T19:38:42.069Z,67.33
2022-07-25T19:41:09.742Z,67.09
2022-07-25T19:43:37.723Z,66.55
2022-07-25T19:46:05.605Z,66.42
2022-07-25T19:48:33.353Z,66.17
2022-07-25T19:51:01.190Z,67.02
2022-07-25T19:53:29.007Z,66.87
2022-07-25T19:55:56.780Z,67.00
2022-07-25T19:58:24.617Z,66.99
2022-07-25T20:00:52.351Z,67.44
2022-07-25T20:03:23.239Z,67.92
2022-07-25T20:05:52.336Z,67.97
2022-07-25T20:08:20.034Z,68.73
2022-07-25T20:10:48.517Z,69.54
2022-07-25T20:13:16.450Z,70.42
2022-07-25T20:15:44.081Z,70.74
2022-07-25T20:18:16.039Z,71.31
2022-07-25T20:20:47.807Z,71.55
2022-07-25T20:23:15.319Z,72.27
2022-07-25T20:25:43.189Z,73.79
2022-07-25T20:28:11.091Z,73.69
2022-07-25T20:30:38.789Z,74.74
2022-07-25T20:33:09.054Z,75.75
2022-07-25T20:35:38.362Z,75.47
2022-07-25T20:38:09.806Z,75.33
2022-07-25T20:40:48.246Z,75.21
2022-07-25T20:43:17.950Z,75.32
2022-07-25T20:45:47.549Z,75.47
2022-07-25T20:48:15.489Z,76.03
2022-07-25T20:50:43.589Z,76.26
2022-07-25T20:53:11.829Z,76.39
2022-07-25T20:55:39.422Z,76.70
2022-07-25T20:58:07.212Z,76.91
2022-07-25T21:00:34.926Z,76.68
2022-07-25T21:03:02.921Z,77.24
2022-07-25T21:05:30.631Z,78.01
2022-07-25T21:07:58.238Z,78.89
2022-07-25T21:10:26.368Z,78.95
2022-07-25T21:12:56.051Z,79.49
2022-07-25T21:15:24.401Z,80.19
2022-07-25T21:17:52.033Z,80.37
2022-07-25T21:20:19.456Z,80.70
2022-07-25T21:22:47.091Z,81.40
2022-07-25T21:25:14.702Z,81.79
2022-07-25T21:27:42.360Z,81.95
2022-07-25T21:30:11.761Z,81.87
2022-07-25T21:32:40.959Z,81.92
2022-07-25T21:35:09.183Z,81.92
2022-07-25T21:37:36.950Z,81.89
2022-07-25T21:40:04.990Z,81.55
2022-07-25T21:42:32.490Z,81.26
2022-07-25T21:45:00.147Z,81.26
2022-07-25T21:47:27.896Z,80.94
2022-07-25T21:50:14.236Z,80.62
2022-07-25T21:52:52.709Z,80.35
2022-07-25T21:55:21.790Z,79.92
2022-07-25T21:57:51.388Z,79.08
2022-07-25T22:00:19.870Z,78.61
2022-07-25T22:02:47.768Z,78.03
2022-07-25T22:05:17.350Z,77.65
2022-07-25T22:07:47.455Z,77.46
2022-07-25T22:10:16.621Z,77.45
2022-07-25T22:12:44.396Z,77.48
2022-07-25T22:15:13.021Z,77.72
2022-07-25T22:17:48.231Z,77.90
2022-07-25T22:20:18.672Z,78.14
2022-07-25T22:22:48.079Z,79.08
2022-07-25T22:25:16.662Z,81.31
2022-07-25T22:27:44.523Z,81.34
2022-07-25T22:30:18.265Z,81.77
2022-07-25T22:32:49.520Z,85.07
2022-07-25T22:35:17.243Z,88.74
2022-07-25T22:37:45.987Z,89.35
2022-07-25T22:40:13.739Z,90.24
2022-07-25T22:42:41.320Z,90.51
2022-07-25T22:45:09.749Z,93.31
2022-07-25T22:47:37.424Z,93.01
2022-07-25T22:50:05.981Z,94.67
2022-07-25T22:52:35.172Z,94.17
2022-07-25T22:55:02.846Z,94.57
2022-07-25T22:57:30.355Z,94.28
2022-07-25T23:00:08.111Z,95.38
2022-07-25T23:02:35.798Z,95.79
2022-07-25T23:05:05.121Z,96.95
2022-07-25T23:07:33.830Z,97.24
2022-07-25T23:10:01.505Z,100.00
2022-07-25T23:12:29.061Z,100.00
2022-07-25T23:14:56.820Z,100.00
2022-07-25T23:17:24.900Z,100.00
2022-07-25T23:19:54.689Z,100.00
2022-07-25T23:22:23.943Z,100.00
2022-07-25T23:24:51.658Z,100.00
2022-07-25T23:27:19.245Z,100.00
2022-07-25T23:29:46.990Z,100.00
2022-07-25T23:32:14.558Z,100.00
2022-07-25T23:34:42.319Z,100.00
2022-07-25T23:37:10.458Z,100.00
2022-07-25T23:39:37.908Z,100.00
2022-07-25T23:42:05.500Z,100.00
2022-07-25T23:44:33.179Z,100.00
2022-07-25T23:47:03.790Z,100.00
2022-07-25T23:49:32.558Z,100.00
2022-07-25T23:52:00.205Z,100.00
2022-07-25T23:54:27.782Z,100.00
2022-07-25T23:56:55.408Z,100.00
2022-07-25T23:59:22.988Z,100.00
